Terminal Aerodrome Forecast
Issued by NWS

Home | Current Version | Previous Version | Text Only | Print | Product List | Glossary On
Versions: 1 2 3 4 5 6 7 8 9 10 11 12 13
000
FTUS44 KCRP 070539
TAFALI
TAF
KALI 070539Z 0706/0806 15008KT P6SM SCT015
     FM070900 14005KT P6SM BKN015 WS020/18035KT
      TEMPO 0710/0712 5SM BR
     FM071500 17015G25KT P6SM SCT030 BKN250
      TEMPO 0715/0717 BKN030
     FM072100 14018G25KT P6SM SCT040 BKN250
     FM080300 15010KT P6SM SCT015=

USA.gov is the U.S. government's official web portal to all federal, state and local government web resources and services.